Time,TemperatureF,DewpointF,PressureIn,WindDirection,WindDirectionDegrees,WindSpeedMPH,WindSpeedGustMPH,Humidity,HourlyPrecipIn,Conditions,Clouds,dailyrainin,SoftwareType,DateUTC
2013-01-29 00:00:00,65.7,60.4,30.22,SE,136,1.6,3.5,83,0.00,OVC,,0.00,WeatherDisplay:10.37,2013-01-29 05:00:00,
2013-01-29 00:01:00,65.7,60.4,30.22,SE,136,0.0,3.5,83,0.00,CLR,,0.00,WeatherDisplay:10.37,2013-01-29 05:01:00,
2013-01-29 00:03:00,65.7,60.4,30.22,ESE,114,1.4,3.5,83,0.00,CLR,,0.00,WeatherDisplay:10.37,2013-01-29 05:03:00,
2013-01-29 00:08:00,65.8,60.2,30.22,ESE,107,1.7,4.6,82,0.00,CLR,,0.00,WeatherDisplay:10.37,2013-01-29 05:08:00,
2013-01-29 00:13:00,65.8,60.2,30.21,SE,129,1.5,3.5,82,0.00,CLR,,0.00,WeatherDisplay:10.37,2013-01-29 05:13:00,
2013-01-29 00:18:00,65.9,60.2,30.22,ESE,120,1.6,3.5,82,0.00,CLR,,0.00,WeatherDisplay:10.37,2013-01-29 05:18:00,
2013-01-29 00:23:00,65.9,60.2,30.21,SSE,153,0.5,2.3,82,0.00,CLR,,0.00,WeatherDisplay:10.37,2013-01-29 05:23:00,
2013-01-29 00:28:00,65.9,60.2,30.21,East,80,1.9,3.5,82,0.00,CLR,,0.00,WeatherDisplay:10.37,2013-01-29 05:28:00,
2013-01-29 00:33:00,65.8,60.2,30.21,ESE,120,0.9,3.5,82,0.00,CLR,,0.00,WeatherDisplay:10.37,2013-01-29 05:33:00,
2013-01-29 00:38:00,65.7,60.1,30.21,ESE,108,0.9,2.3,82,0.00,CLR,,0.00,WeatherDisplay:10.37,2013-01-29 05:38:00,
2013-01-29 00:43:00,65.4,60.1,30.21,ESE,121,0.5,1.1,83,0.00,CLR,,0.00,WeatherDisplay:10.37,2013-01-29 05:43:00,
2013-01-29 00:48:00,65.2,59.9,30.20,East,86,0.5,2.3,83,0.00,CLR,,0.00,WeatherDisplay:10.37,2013-01-29 05:48:00,
2013-01-29 00:53:00,65.1,59.8,30.21,East,101,0.6,1.0,83,0.00,CLR,,0.00,WeatherDisplay:10.37,2013-01-29 05:53:00,
2013-01-29 00:58:00,65.0,59.7,30.21,East,98,0.0,1.1,83,0.00,CLR,,0.00,WeatherDisplay:10.37,2013-01-29 05:58:00,
2013-01-29 01:03:00,64.9,59.6,30.21,ESE,110,0.2,1.1,83,0.00,CLR,,0.00,WeatherDisplay:10.37,2013-01-29 06:03:00,
2013-01-29 01:08:00,64.8,59.9,30.20,East,94,0.0,1.1,84,0.00,CLR,,0.00,WeatherDisplay:10.37,2013-01-29 06:08:00,
2013-01-29 01:13:00,64.6,59.7,30.20,East,96,0.1,0.0,84,0.00,CLR,,0.00,WeatherDisplay:10.37,2013-01-29 06:13:00,
2013-01-29 01:18:00,64.3,59.4,30.20,ESE,102,0.0,1.1,84,0.00,CLR,,0.00,WeatherDisplay:10.37,2013-01-29 06:18:00,
2013-01-29 01:23:00,64.1,59.5,30.20,East,89,0.0,1.1,85,0.00,CLR,,0.00,WeatherDisplay:10.37,2013-01-29 06:23:00,
2013-01-29 01:28:00,64.0,59.4,30.20,ESE,104,0.0,1.1,85,0.00,CLR,,0.00,WeatherDisplay:10.37,2013-01-29 06:28:00,
2013-01-29 01:33:00,63.5,58.9,30.20,ESE,104,0.0,0.0,85,0.00,CLR,,0.00,WeatherDisplay:10.37,2013-01-29 06:33:00,
2013-01-29 01:38:00,63.2,58.9,30.20,ESE,105,0.0,0.0,86,0.00,CLR,,0.00,WeatherDisplay:10.37,2013-01-29 06:38:00,
2013-01-29 01:43:00,63.1,59.2,30.20,SE,124,0.0,1.1,87,0.00,CLR,,0.00,WeatherDisplay:10.37,2013-01-29 06:43:00,
2013-01-29 01:48:00,62.9,59.0,30.20,SE,126,0.0,0.0,87,0.00,CLR,,0.00,WeatherDisplay:10.37,2013-01-29 06:48:00,
2013-01-29 01:53:00,62.7,59.1,30.20,SE,125,0.0,0.0,88,0.00,CLR,,0.00,WeatherDisplay:10.37,2013-01-29 06:53:00,
2013-01-29 01:58:00,62.6,59.0,30.20,NE,37,0.0,0.0,88,0.00,CLR,,0.00,WeatherDisplay:10.37,2013-01-29 06:58:00,
2013-01-29 02:03:00,62.3,58.7,30.20,NE,37,0.0,0.0,88,0.00,CLR,,0.00,WeatherDisplay:10.37,2013-01-29 07:03:00,
2013-01-29 02:08:00,62.1,58.5,30.20,NE,37,0.0,0.0,88,0.00,CLR,,0.00,WeatherDisplay:10.37,2013-01-29 07:08:00,
2013-01-29 02:13:00,62.0,59.0,30.20,ESE,117,0.0,1.1,90,0.00,CLR,,0.00,WeatherDisplay:10.37,2013-01-29 07:13:00,
2013-01-29 02:18:00,62.2,59.2,30.20,ESE,111,0.0,1.1,90,0.00,CLR,,0.00,WeatherDisplay:10.37,2013-01-29 07:18:00,
2013-01-29 02:23:00,62.0,59.0,30.19,ESE,111,0.0,0.0,90,0.00,CLR,,0.00,WeatherDisplay:10.37,2013-01-29 07:23:00,
2013-01-29 02:28:00,61.6,58.6,30.19,ESE,111,0.0,0.0,90,0.00,CLR,,0.00,WeatherDisplay:10.37,2013-01-29 07:28:00,
2013-01-29 02:33:00,61.4,58.7,30.19,ESE,111,0.0,0.0,91,0.00,CLR,,0.00,WeatherDisplay:10.37,2013-01-29 07:33:00,
2013-01-29 02:38:00,61.5,59.2,30.19,ESE,112,0.0,0.0,92,0.00,CLR,,0.00,WeatherDisplay:10.37,2013-01-29 07:38:00,
2013-01-29 02:44:00,61.6,59.3,30.18,ESE,113,0.0,0.0,92,0.00,CLR,,0.00,WeatherDisplay:10.37,2013-01-29 07:44:00,
2013-01-29 02:49:00,61.6,59.3,30.18,ESE,108,0.0,1.1,92,0.00,CLR,,0.00,WeatherDisplay:10.37,2013-01-29 07:49:00,
2013-01-29 02:54:00,61.6,59.3,30.18,ESE,110,0.0,1.1,92,0.00,CLR,,0.00,WeatherDisplay:10.37,2013-01-29 07:54:00,
2013-01-29 02:59:00,61.6,59.3,30.18,ESE,110,0.7,1.1,92,0.00,CLR,,0.00,WeatherDisplay:10.37,2013-01-29 07:59:00,
2013-01-29 03:04:00,61.7,59.4,30.18,ESE,115,0.4,1.0,92,0.00,CLR,,0.00,WeatherDisplay:10.37,2013-01-29 08:04:00,
2013-01-29 03:09:00,61.7,59.4,30.18,East,86,1.2,2.3,92,0.00,CLR,,0.00,WeatherDisplay:10.37,2013-01-29 08:09:00,
2013-01-29 03:14:00,61.8,59.5,30.18,ESE,103,0.3,2.3,92,0.00,CLR,,0.00,WeatherDisplay:10.37,2013-01-29 08:14:00,
2013-01-29 03:19:00,62.0,60.0,30.18,ESE,108,0.5,2.3,93,0.00,CLR,,0.00,WeatherDisplay:10.37,2013-01-29 08:19:00,
2013-01-29 03:24:00,62.2,60.2,30.17,ESE,114,0.3,1.1,93,0.00,CLR,,0.00,WeatherDisplay:10.37,2013-01-29 08:24:00,
2013-01-29 03:29:00,62.3,60.2,30.17,ESE,120,0.7,2.3,93,0.00,CLR,,0.00,WeatherDisplay:10.37,2013-01-29 08:29:00,
2013-01-29 03:34:00,62.4,60.3,30.17,ESE,115,2.0,4.6,93,0.00,CLR,,0.00,WeatherDisplay:10.37,2013-01-29 08:34:00,
2013-01-29 03:39:00,62.6,60.5,30.17,ESE,122,0.4,2.3,93,0.00,CLR,,0.00,WeatherDisplay:10.37,2013-01-29 08:39:00,
2013-01-29 03:44:00,62.6,60.2,30.17,East,97,0.3,2.3,92,0.00,CLR,,0.00,WeatherDisplay:10.37,2013-01-29 08:44:00,
2013-01-29 03:49:00,62.7,60.3,30.17,SE,139,0.2,1.1,92,0.00,CLR,,0.00,WeatherDisplay:10.37,2013-01-29 08:49:00,
2013-01-29 03:54:00,62.6,60.2,30.18,East,98,0.5,3.5,92,0.00,CLR,,0.00,WeatherDisplay:10.37,2013-01-29 08:54:00,
2013-01-29 03:59:00,62.5,60.1,30.18,ESE,120,0.0,1.1,92,0.00,CLR,,0.00,WeatherDisplay:10.37,2013-01-29 08:59:00,
2013-01-29 04:04:00,62.4,60.3,30.18,East,98,0.3,1.1,93,0.00,CLR,,0.00,WeatherDisplay:10.37,2013-01-29 09:04:00,
2013-01-29 04:09:00,62.2,60.2,30.18,ESE,111,0.8,2.3,93,0.00,CLR,,0.00,WeatherDisplay:10.37,2013-01-29 09:09:00,
2013-01-29 04:14:00,62.1,60.1,30.18,ESE,111,1.4,3.5,93,0.00,CLR,,0.00,WeatherDisplay:10.37,2013-01-29 09:14:00,
2013-01-29 04:19:00,62.0,60.0,30.18,East,97,0.1,1.1,93,0.00,CLR,,0.00,WeatherDisplay:10.37,2013-01-29 09:19:00,
2013-01-29 04:24:00,61.9,59.9,30.17,ESE,109,0.2,1.1,93,0.00,CLR,,0.00,WeatherDisplay:10.37,2013-01-29 09:24:00,
2013-01-29 04:29:00,61.9,60.2,30.17,ESE,113,0.7,2.3,94,0.00,CLR,,0.00,WeatherDisplay:10.37,2013-01-29 09:29:00,
2013-01-29 04:34:00,61.9,60.2,30.17,East,99,1.7,3.5,94,0.00,CLR,,0.00,WeatherDisplay:10.37,2013-01-29 09:34:00,
2013-01-29 04:39:00,61.9,60.2,30.17,East,101,0.6,2.3,94,0.00,CLR,,0.00,WeatherDisplay:10.37,2013-01-29 09:39:00,
2013-01-29 08:25:00,64.7,63.2,30.20,East,92,1.6,6.0,95,0.00,CLR,,0.00,WeatherDisplay:10.37,2013-01-29 13:25:00,
2013-01-29 08:30:00,65.1,63.3,30.20,SSE,151,2.1,4.6,94,0.00,CLR,,0.00,WeatherDisplay:10.37,2013-01-29 13:30:00,
2013-01-29 08:35:00,65.5,63.7,30.21,East,81,1.2,3.0,94,0.00,CLR,,0.00,WeatherDisplay:10.37,2013-01-29 13:35:00,
2013-01-29 08:40:00,66.1,64.0,30.20,SE,124,2.7,3.5,93,0.00,CLR,,0.00,WeatherDisplay:10.37,2013-01-29 13:40:00,
2013-01-29 08:45:00,66.6,64.2,30.20,SE,131,3.6,5.8,92,0.00,CLR,,0.00,WeatherDisplay:10.37,2013-01-29 13:45:00,
2013-01-29 08:50:00,67.0,64.6,30.20,East,91,5.0,6.9,92,0.00,CLR,,0.00,WeatherDisplay:10.37,2013-01-29 13:50:00,
2013-01-29 08:55:00,67.2,64.8,30.20,ESE,111,2.6,5.8,92,0.00,CLR,,0.00,WeatherDisplay:10.37,2013-01-29 13:55:00,
2013-01-29 09:00:00,67.6,64.9,30.20,ESE,121,3.1,6.0,91,0.00,CLR,,0.00,WeatherDisplay:10.37,2013-01-29 14:00:00,
2013-01-29 09:05:00,67.9,65.2,30.20,ENE,74,1.8,5.8,91,0.00,CLR,,0.00,WeatherDisplay:10.37,2013-01-29 14:05:00,
2013-01-29 09:10:00,68.4,65.4,30.20,East,89,3.0,5.8,90,0.00,CLR,,0.00,WeatherDisplay:10.37,2013-01-29 14:10:00,
2013-01-29 09:15:00,69.1,65.7,30.20,ESE,115,1.9,3.5,89,0.00,CLR,,0.00,WeatherDisplay:10.37,2013-01-29 14:15:00,
2013-01-29 09:20:00,69.5,65.8,30.20,ESE,114,2.5,5.8,88,0.00,CLR,,0.00,WeatherDisplay:10.37,2013-01-29 14:20:00,
2013-01-29 09:25:00,70.0,66.0,30.20,ESE,117,2.3,3.5,87,0.00,CLR,,0.00,WeatherDisplay:10.37,2013-01-29 14:25:00,
2013-01-29 09:31:00,70.3,66.2,30.20,East,86,5.3,10.0,87,0.00,CLR,,0.00,WeatherDisplay:10.37,2013-01-29 14:31:00,
2013-01-29 11:14:00,77.8,67.6,30.18,ESE,115,4.5,14.0,71,0.00,CLR,,0.00,WeatherDisplay:10.37,2013-01-29 16:14:00,
2013-01-29 11:19:00,78.2,67.2,30.17,East,83,6.5,10.4,69,0.00,CLR,,0.00,WeatherDisplay:10.37,2013-01-29 16:19:00,
2013-01-29 12:41:00,81.9,65.2,30.12,South,174,5.0,15.0,57,0.00,CLR,,0.00,WeatherDisplay:10.37,2013-01-29 17:41:00,
2013-01-29 12:46:00,81.2,65.0,30.12,South,183,4.1,8.1,58,0.00,CLR,,0.00,WeatherDisplay:10.37,2013-01-29 17:46:00,
2013-01-29 12:51:00,81.3,65.6,30.12,SE,134,2.7,6.0,59,0.00,CLR,,0.00,WeatherDisplay:10.37,2013-01-29 17:51:00,
2013-01-29 12:56:00,81.2,65.5,30.12,ESE,108,7.5,11.5,59,0.00,CLR,,0.00,WeatherDisplay:10.37,2013-01-29 17:56:00,
2013-01-29 13:01:00,80.8,66.1,30.12,SSE,160,8.5,11.5,61,0.00,CLR,,0.00,WeatherDisplay:10.37,2013-01-29 18:01:00,
2013-01-29 13:06:00,80.7,66.5,30.11,ESE,119,5.4,11.5,62,0.00,CLR,,0.00,WeatherDisplay:10.37,2013-01-29 18:06:00,
2013-01-29 13:11:00,80.6,67.3,30.11,SSW,204,7.1,9.2,64,0.00,FEW,,0.00,WeatherDisplay:10.37,2013-01-29 18:11:00,
2013-01-29 13:16:00,80.2,67.4,30.11,West,264,5.6,10.4,65,0.00,FEW,,0.00,WeatherDisplay:10.37,2013-01-29 18:16:00,
2013-01-29 13:21:00,80.3,67.5,30.11,South,184,4.7,10.4,65,0.00,FEW,,0.00,WeatherDisplay:10.37,2013-01-29 18:21:00,
2013-01-29 13:26:00,79.9,67.1,30.11,South,188,8.0,11.5,65,0.00,FEW,,0.00,WeatherDisplay:10.37,2013-01-29 18:26:00,
2013-01-29 13:31:00,80.1,67.7,30.11,WSW,246,5.6,5.8,66,0.00,FEW,,0.00,WeatherDisplay:10.37,2013-01-29 18:31:00,
2013-01-29 13:36:00,80.5,67.6,30.10,SSE,152,5.2,10.0,65,0.00,FEW,,0.00,WeatherDisplay:10.37,2013-01-29 18:36:00,
2013-01-29 13:41:00,80.1,67.3,30.11,South,191,6.9,13.8,65,0.00,FEW,,0.00,WeatherDisplay:10.37,2013-01-29 18:41:00,
2013-01-29 13:46:00,79.9,67.1,30.10,WSW,240,6.7,10.4,65,0.00,FEW,,0.00,WeatherDisplay:10.37,2013-01-29 18:46:00,
2013-01-29 13:51:00,80.0,67.2,30.10,South,173,4.9,10.4,65,0.00,FEW,,0.00,WeatherDisplay:10.37,2013-01-29 18:51:00,
2013-01-29 13:56:00,79.8,66.1,30.10,SSE,152,10.4,13.0,63,0.00,FEW,,0.00,WeatherDisplay:10.37,2013-01-29 18:56:00,
2013-01-29 14:01:00,79.4,66.6,30.10,SE,124,7.8,11.5,65,0.00,SCT,,0.00,WeatherDisplay:10.37,2013-01-29 19:01:00,
2013-01-29 14:06:00,79.4,66.2,30.10,SSE,159,10.3,12.7,64,0.00,SCT,,0.00,WeatherDisplay:10.37,2013-01-29 19:06:00,
2013-01-29 14:11:00,79.1,66.8,30.10,SSE,161,4.2,5.8,66,0.00,SCT,,0.00,WeatherDisplay:10.37,2013-01-29 19:11:00,
2013-01-29 14:16:00,79.2,66.9,30.10,South,179,7.8,11.5,66,0.00,SCT,,0.00,WeatherDisplay:10.37,2013-01-29 19:16:00,
2013-01-29 14:21:00,79.5,67.1,30.10,WSW,245,6.0,6.9,66,0.00,SCT,,0.00,WeatherDisplay:10.37,2013-01-29 19:21:00,
2013-01-29 14:26:00,79.6,67.2,30.10,South,188,6.3,11.5,66,0.00,SCT,,0.00,WeatherDisplay:10.37,2013-01-29 19:26:00,
2013-01-29 14:31:00,79.4,67.0,30.10,SW,217,6.6,11.5,66,0.00,SCT,,0.00,WeatherDisplay:10.37,2013-01-29 19:31:00,
2013-01-29 14:36:00,79.0,67.1,30.10,SSE,159,8.4,17.3,67,0.00,SCT,,0.00,WeatherDisplay:10.37,2013-01-29 19:36:00,
2013-01-29 14:41:00,78.5,67.1,30.10,SSW,207,6.1,11.5,68,0.00,SCT,,0.00,WeatherDisplay:10.37,2013-01-29 19:41:00,
2013-01-29 14:46:00,78.5,67.1,30.10,SW,218,11.3,14.0,68,0.00,SCT,,0.00,WeatherDisplay:10.37,2013-01-29 19:46:00,
2013-01-29 14:51:00,78.3,67.3,30.10,SSW,203,8.9,16.1,69,0.00,SCT,,0.00,WeatherDisplay:10.37,2013-01-29 19:51:00,
2013-01-29 14:56:00,78.0,67.4,30.09,WSW,240,7.6,15.0,70,0.00,SCT,,0.00,WeatherDisplay:10.37,2013-01-29 19:56:00,
2013-01-29 14:58:00,78.1,67.1,30.09,South,183,6.7,12.0,69,0.00,SCT,,0.00,WeatherDisplay:10.37,2013-01-29 19:58:00,
2013-01-29 15:03:00,77.5,66.9,30.09,SSW,200,9.5,13.8,70,0.00,BKN,,0.00,WeatherDisplay:10.37,2013-01-29 20:03:00,
2013-01-29 15:08:00,77.2,67.5,30.09,South,181,4.8,13.0,72,0.00,BKN,,0.00,WeatherDisplay:10.37,2013-01-29 20:08:00,
2013-01-29 15:13:00,77.2,67.5,30.09,SE,127,5.4,5.8,72,0.00,BKN,,0.00,WeatherDisplay:10.37,2013-01-29 20:13:00,
2013-01-29 15:18:00,76.7,67.0,30.09,SSW,211,7.3,13.8,72,0.00,BKN,,0.00,WeatherDisplay:10.37,2013-01-29 20:18:00,
2013-01-29 15:23:00,76.6,66.9,30.09,South,169,8.6,11.5,72,0.00,BKN,,0.00,WeatherDisplay:10.37,2013-01-29 20:23:00,
2013-01-29 15:28:00,76.6,67.3,30.09,SSW,200,5.4,11.5,73,0.00,BKN,,0.00,WeatherDisplay:10.37,2013-01-29 20:28:00,
2013-01-29 15:33:00,76.6,66.9,30.09,SW,218,6.2,9.2,72,0.00,BKN,,0.00,WeatherDisplay:10.37,2013-01-29 20:33:00,
2013-01-29 15:38:00,76.3,67.0,30.09,SSW,201,4.5,8.1,73,0.00,BKN,,0.00,WeatherDisplay:10.37,2013-01-29 20:38:00,
2013-01-29 15:43:00,76.3,67.0,30.08,SW,217,4.6,11.5,73,0.00,BKN,,0.00,WeatherDisplay:10.37,2013-01-29 20:43:00,
2013-01-29 16:51:00,74.4,66.3,30.08,SSE,160,8.1,15.0,76,0.00,BKN,,0.00,WeatherDisplay:10.37,2013-01-29 21:51:00,
2013-01-29 16:56:00,74.3,66.2,30.08,South,183,7.0,12.7,76,0.00,BKN,,0.00,WeatherDisplay:10.37,2013-01-29 21:56:00,
2013-01-29 17:01:00,74.3,66.2,30.08,SE,136,2.4,9.2,76,0.00,BKN,,0.00,WeatherDisplay:10.37,2013-01-29 22:01:00,
2013-01-29 17:06:00,74.5,66.1,30.08,SSE,166,5.6,9.2,75,0.00,OVC,,0.00,WeatherDisplay:10.37,2013-01-29 22:06:00,
2013-01-29 17:11:00,74.5,66.1,30.08,South,169,5.8,8.1,75,0.00,OVC,,0.00,WeatherDisplay:10.37,2013-01-29 22:11:00,
2013-01-29 17:16:00,74.4,66.3,30.08,South,180,7.3,9.2,76,0.00,OVC,,0.00,WeatherDisplay:10.37,2013-01-29 22:16:00,
2013-01-29 17:21:00,74.2,66.1,30.08,SSW,201,7.5,11.5,76,0.00,OVC,,0.00,WeatherDisplay:10.37,2013-01-29 22:21:00,
2013-01-29 17:26:00,73.9,65.9,30.08,SSE,168,7.3,8.1,76,0.00,OVC,,0.00,WeatherDisplay:10.37,2013-01-29 22:26:00,
2013-01-29 17:31:00,73.7,66.0,30.08,SSW,212,3.6,8.1,77,0.00,OVC,,0.00,WeatherDisplay:10.37,2013-01-29 22:31:00,
2013-01-29 17:36:00,73.6,65.9,30.08,South,170,5.5,8.1,77,0.00,OVC,,0.00,WeatherDisplay:10.37,2013-01-29 22:36:00,
2013-01-29 17:41:00,73.5,66.2,30.08,SE,143,2.8,4.6,78,0.00,OVC,,0.00,WeatherDisplay:10.37,2013-01-29 22:41:00,
2013-01-29 17:46:00,73.4,66.1,30.08,South,183,3.9,6.9,78,0.00,OVC,,0.00,WeatherDisplay:10.37,2013-01-29 22:46:00,
2013-01-29 17:51:00,73.2,66.3,30.08,ESE,103,2.3,4.6,79,0.00,OVC,,0.00,WeatherDisplay:10.37,2013-01-29 22:51:00,
2013-01-29 17:56:00,73.0,66.1,30.08,East,85,4.5,10.4,79,0.00,OVC,,0.00,WeatherDisplay:10.37,2013-01-29 22:56:00,
2013-01-29 18:01:00,72.9,66.0,30.08,SW,229,3.4,5.8,79,0.00,OVC,,0.00,WeatherDisplay:10.37,2013-01-29 23:01:00,
2013-01-29 18:06:00,72.7,66.2,30.08,South,173,4.7,6.9,80,0.00,OVC,,0.00,WeatherDisplay:10.37,2013-01-29 23:06:00,
2013-01-29 18:11:00,72.6,66.1,30.08,SSE,148,6.4,10.4,80,0.00,OVC,,0.00,WeatherDisplay:10.37,2013-01-29 23:11:00,
2013-01-29 18:16:00,72.5,66.0,30.08,SSE,165,2.8,4.6,80,0.00,OVC,,0.00,WeatherDisplay:10.37,2013-01-29 23:16:00,
2013-01-29 18:21:00,72.4,66.2,30.08,SSE,165,4.2,5.8,81,0.00,CLR,,0.00,WeatherDisplay:10.37,2013-01-29 23:21:00,
2013-01-29 18:26:00,72.3,66.1,30.08,SW,215,4.2,8.1,81,0.00,CLR,,0.00,WeatherDisplay:10.37,2013-01-29 23:26:00,
2013-01-29 18:31:00,72.2,66.0,30.08,South,173,4.8,9.0,81,0.00,CLR,,0.00,WeatherDisplay:10.37,2013-01-29 23:31:00,
2013-01-29 18:36:00,72.2,66.4,30.08,SSW,209,3.2,6.9,82,0.00,CLR,,0.00,WeatherDisplay:10.37,2013-01-29 23:36:00,
2013-01-29 18:54:00,71.8,66.4,30.09,SSW,209,2.4,8.1,83,0.00,CLR,,0.00,WeatherDisplay:10.37,2013-01-29 23:54:00,
2013-01-29 18:59:00,71.7,66.6,30.09,SSE,153,2.5,4.6,84,0.00,CLR,,0.00,WeatherDisplay:10.37,2013-01-29 23:59:00,
2013-01-29 19:04:00,71.6,66.5,30.09,SSE,159,3.1,4.0,84,0.00,CLR,,0.00,WeatherDisplay:10.37,2013-01-30 00:04:00,
2013-01-29 19:09:00,71.6,66.5,30.09,SSE,162,3.5,8.1,84,0.00,CLR,,0.00,WeatherDisplay:10.37,2013-01-30 00:09:00,
2013-01-29 19:14:00,71.6,66.5,30.09,SE,135,5.2,8.1,84,0.00,CLR,,0.00,WeatherDisplay:10.37,2013-01-30 00:14:00,
2013-01-29 19:19:00,71.6,66.5,30.09,South,173,2.7,4.6,84,0.00,CLR,,0.00,WeatherDisplay:10.37,2013-01-30 00:19:00,
2013-01-29 20:35:00,72.3,66.8,30.09,South,177,3.8,10.4,83,0.00,CLR,,0.00,WeatherDisplay:10.37,2013-01-30 01:35:00,
2013-01-29 20:40:00,72.4,66.9,30.09,SE,139,6.1,10.4,83,0.00,CLR,,0.00,WeatherDisplay:10.37,2013-01-30 01:40:00,
2013-01-29 20:45:00,72.5,67.0,30.09,SSE,165,4.2,4.6,83,0.00,BKN,,0.00,WeatherDisplay:10.37,2013-01-30 01:45:00,
2013-01-29 20:51:00,72.5,67.0,30.09,South,176,4.0,10.0,83,0.00,BKN,,0.00,WeatherDisplay:10.37,2013-01-30 01:51:00,
2013-01-29 20:56:00,72.5,67.4,30.09,SE,130,3.2,5.8,84,0.00,BKN,,0.00,WeatherDisplay:10.37,2013-01-30 01:56:00,
2013-01-29 21:01:00,72.6,67.5,30.09,South,190,4.3,8.1,84,0.00,BKN,,0.00,WeatherDisplay:10.37,2013-01-30 02:01:00,